sensor_id;sensor_type;location;lat;lon;timestamp;P1;durP1;ratioP1;P2;durP2;ratioP2
26774;SDS011;14362;51.902;7.626;2023-07-16T00:02:20;2.72;;;1.92;;
26774;SDS011;14362;51.902;7.626;2023-07-16T00:06:22;2.05;;;1.63;;
26774;SDS011;14362;51.902;7.626;2023-07-16T00:10:24;3.95;;;1.88;;
26774;SDS011;14362;51.902;7.626;2023-07-16T00:14:26;3.20;;;1.95;;
26774;SDS011;14362;51.902;7.626;2023-07-16T00:18:27;5.25;;;2.33;;
26774;SDS011;14362;51.902;7.626;2023-07-16T00:22:29;3.70;;;2.08;;
26774;SDS011;14362;51.902;7.626;2023-07-16T00:26:32;4.72;;;2.30;;
26774;SDS011;14362;51.902;7.626;2023-07-16T00:30:33;3.22;;;2.00;;
26774;SDS011;14362;51.902;7.626;2023-07-16T00:34:35;3.55;;;2.00;;
26774;SDS011;14362;51.902;7.626;2023-07-16T00:38:36;3.67;;;1.83;;
26774;SDS011;14362;51.902;7.626;2023-07-16T00:42:41;3.40;;;2.20;;
26774;SDS011;14362;51.902;7.626;2023-07-16T00:46:42;5.32;;;2.40;;
26774;SDS011;14362;51.902;7.626;2023-07-16T00:50:44;3.40;;;2.42;;
26774;SDS011;14362;51.902;7.626;2023-07-16T00:54:45;4.30;;;2.33;;
26774;SDS011;14362;51.902;7.626;2023-07-16T00:58:49;5.43;;;2.35;;
26774;SDS011;14362;51.902;7.626;2023-07-16T01:02:50;4.38;;;2.67;;
26774;SDS011;14362;51.902;7.626;2023-07-16T01:06:52;4.53;;;2.50;;
26774;SDS011;14362;51.902;7.626;2023-07-16T01:10:57;6.22;;;2.70;;
26774;SDS011;14362;51.902;7.626;2023-07-16T01:15:01;3.97;;;2.70;;
26774;SDS011;14362;51.902;7.626;2023-07-16T01:19:03;9.73;;;2.22;;
26774;SDS011;14362;51.902;7.626;2023-07-16T01:23:10;3.38;;;2.20;;
26774;SDS011;14362;51.902;7.626;2023-07-16T01:27:31;3.33;;;2.25;;
26774;SDS011;14362;51.902;7.626;2023-07-16T01:31:56;4.00;;;2.05;;
26774;SDS011;14362;51.902;7.626;2023-07-16T01:40:01;4.50;;;2.40;;
26774;SDS011;14362;51.902;7.626;2023-07-16T01:44:03;3.67;;;2.15;;
26774;SDS011;14362;51.902;7.626;2023-07-16T01:48:08;3.45;;;2.35;;
26774;SDS011;14362;51.902;7.626;2023-07-16T01:52:18;3.20;;;2.35;;
26774;SDS011;14362;51.902;7.626;2023-07-16T01:56:19;4.65;;;2.50;;
26774;SDS011;14362;51.902;7.626;2023-07-16T02:00:21;4.65;;;2.80;;
26774;SDS011;14362;51.902;7.626;2023-07-16T02:04:24;3.58;;;2.50;;
26774;SDS011;14362;51.902;7.626;2023-07-16T02:08:25;3.65;;;2.70;;
26774;SDS011;14362;51.902;7.626;2023-07-16T02:12:27;4.75;;;2.50;;
26774;SDS011;14362;51.902;7.626;2023-07-16T02:16:28;6.10;;;2.85;;
26774;SDS011;14362;51.902;7.626;2023-07-16T02:20:31;3.63;;;2.58;;
26774;SDS011;14362;51.902;7.626;2023-07-16T02:24:32;4.57;;;3.17;;
26774;SDS011;14362;51.902;7.626;2023-07-16T02:28:34;4.97;;;2.83;;
26774;SDS011;14362;51.902;7.626;2023-07-16T02:32:35;4.95;;;3.10;;
26774;SDS011;14362;51.902;7.626;2023-07-16T02:36:38;6.53;;;3.28;;
26774;SDS011;14362;51.902;7.626;2023-07-16T02:40:42;5.10;;;3.70;;
26774;SDS011;14362;51.902;7.626;2023-07-16T02:44:44;8.25;;;4.40;;
26774;SDS011;14362;51.902;7.626;2023-07-16T02:48:45;5.63;;;3.30;;
26774;SDS011;14362;51.902;7.626;2023-07-16T02:52:48;4.65;;;3.30;;
26774;SDS011;14362;51.902;7.626;2023-07-16T02:56:49;3.92;;;3.40;;
26774;SDS011;14362;51.902;7.626;2023-07-16T03:00:51;5.10;;;3.47;;
26774;SDS011;14362;51.902;7.626;2023-07-16T03:04:52;5.57;;;3.35;;
26774;SDS011;14362;51.902;7.626;2023-07-16T03:08:55;4.63;;;3.40;;
26774;SDS011;14362;51.902;7.626;2023-07-16T03:12:57;7.68;;;3.90;;
26774;SDS011;14362;51.902;7.626;2023-07-16T03:16:58;5.38;;;3.38;;
26774;SDS011;14362;51.902;7.626;2023-07-16T03:21:00;5.55;;;3.85;;
26774;SDS011;14362;51.902;7.626;2023-07-16T03:25:03;7.00;;;4.30;;
26774;SDS011;14362;51.902;7.626;2023-07-16T03:29:04;6.07;;;4.10;;
26774;SDS011;14362;51.902;7.626;2023-07-16T03:33:06;5.57;;;4.00;;
26774;SDS011;14362;51.902;7.626;2023-07-16T03:37:07;6.20;;;3.92;;
26774;SDS011;14362;51.902;7.626;2023-07-16T03:41:10;5.55;;;3.90;;
26774;SDS011;14362;51.902;7.626;2023-07-16T03:45:11;4.13;;;3.00;;
26774;SDS011;14362;51.902;7.626;2023-07-16T03:49:14;3.50;;;3.10;;
26774;SDS011;14362;51.902;7.626;2023-07-16T03:53:15;5.15;;;2.75;;
26774;SDS011;14362;51.902;7.626;2023-07-16T03:57:18;5.18;;;3.13;;
26774;SDS011;14362;51.902;7.626;2023-07-16T04:01:20;4.68;;;3.00;;
26774;SDS011;14362;51.902;7.626;2023-07-16T04:05:21;4.13;;;2.78;;
26774;SDS011;14362;51.902;7.626;2023-07-16T04:09:23;3.22;;;2.28;;
26774;SDS011;14362;51.902;7.626;2023-07-16T04:13:25;4.90;;;2.67;;
26774;SDS011;14362;51.902;7.626;2023-07-16T04:17:27;6.43;;;2.30;;
26774;SDS011;14362;51.902;7.626;2023-07-16T04:21:28;3.17;;;2.22;;
26774;SDS011;14362;51.902;7.626;2023-07-16T04:25:29;4.93;;;2.70;;
26774;SDS011;14362;51.902;7.626;2023-07-16T04:29:32;6.38;;;2.30;;
26774;SDS011;14362;51.902;7.626;2023-07-16T04:33:34;5.95;;;2.47;;
26774;SDS011;14362;51.902;7.626;2023-07-16T04:37:35;6.15;;;2.53;;
26774;SDS011;14362;51.902;7.626;2023-07-16T04:41:37;4.22;;;2.42;;
26774;SDS011;14362;51.902;7.626;2023-07-16T04:45:39;4.13;;;2.72;;
26774;SDS011;14362;51.902;7.626;2023-07-16T04:49:41;5.50;;;2.50;;
26774;SDS011;14362;51.902;7.626;2023-07-16T04:53:42;7.32;;;2.55;;
26774;SDS011;14362;51.902;7.626;2023-07-16T04:57:44;3.95;;;2.22;;
26774;SDS011;14362;51.902;7.626;2023-07-16T05:01:47;7.25;;;2.60;;
26774;SDS011;14362;51.902;7.626;2023-07-16T05:05:48;7.30;;;2.65;;
26774;SDS011;14362;51.902;7.626;2023-07-16T05:09:49;5.85;;;2.78;;
26774;SDS011;14362;51.902;7.626;2023-07-16T05:13:51;9.20;;;3.13;;
26774;SDS011;14362;51.902;7.626;2023-07-16T05:17:54;7.32;;;3.60;;
26774;SDS011;14362;51.902;7.626;2023-07-16T05:21:57;6.93;;;3.33;;
26774;SDS011;14362;51.902;7.626;2023-07-16T05:25:58;8.00;;;2.97;;
26774;SDS011;14362;51.902;7.626;2023-07-16T05:30:00;9.32;;;4.35;;
26774;SDS011;14362;51.902;7.626;2023-07-16T05:34:03;7.97;;;3.28;;
26774;SDS011;14362;51.902;7.626;2023-07-16T05:38:04;5.30;;;3.25;;
26774;SDS011;14362;51.902;7.626;2023-07-16T05:42:06;9.30;;;3.75;;
26774;SDS011;14362;51.902;7.626;2023-07-16T05:46:07;6.53;;;3.13;;
26774;SDS011;14362;51.902;7.626;2023-07-16T05:50:10;7.50;;;3.45;;
26774;SDS011;14362;51.902;7.626;2023-07-16T05:54:12;6.97;;;3.47;;
26774;SDS011;14362;51.902;7.626;2023-07-16T05:58:13;5.05;;;3.30;;
26774;SDS011;14362;51.902;7.626;2023-07-16T06:02:14;8.02;;;3.28;;
26774;SDS011;14362;51.902;7.626;2023-07-16T06:06:17;4.93;;;2.83;;
26774;SDS011;14362;51.902;7.626;2023-07-16T06:10:19;7.18;;;3.10;;
26774;SDS011;14362;51.902;7.626;2023-07-16T06:14:20;6.65;;;3.00;;
26774;SDS011;14362;51.902;7.626;2023-07-16T06:18:21;8.88;;;3.50;;
26774;SDS011;14362;51.902;7.626;2023-07-16T06:22:24;8.95;;;3.97;;
26774;SDS011;14362;51.902;7.626;2023-07-16T06:26:26;7.65;;;3.63;;
26774;SDS011;14362;51.902;7.626;2023-07-16T06:30:27;10.15;;;4.38;;
26774;SDS011;14362;51.902;7.626;2023-07-16T06:34:30;11.73;;;3.88;;
26774;SDS011;14362;51.902;7.626;2023-07-16T06:38:33;5.78;;;3.63;;
26774;SDS011;14362;51.902;7.626;2023-07-16T06:42:35;8.13;;;3.70;;
26774;SDS011;14362;51.902;7.626;2023-07-16T06:46:36;11.88;;;3.95;;
26774;SDS011;14362;51.902;7.626;2023-07-16T06:50:37;10.43;;;3.20;;
26774;SDS011;14362;51.902;7.626;2023-07-16T06:54:40;9.27;;;4.07;;
26774;SDS011;14362;51.902;7.626;2023-07-16T06:58:43;7.78;;;4.03;;
26774;SDS011;14362;51.902;7.626;2023-07-16T07:02:44;7.53;;;3.75;;
26774;SDS011;14362;51.902;7.626;2023-07-16T07:06:46;6.78;;;4.07;;
26774;SDS011;14362;51.902;7.626;2023-07-16T07:10:49;7.38;;;4.43;;
26774;SDS011;14362;51.902;7.626;2023-07-16T07:14:51;11.27;;;4.40;;
26774;SDS011;14362;51.902;7.626;2023-07-16T07:18:52;8.15;;;4.47;;
26774;SDS011;14362;51.902;7.626;2023-07-16T07:22:53;8.82;;;4.07;;
26774;SDS011;14362;51.902;7.626;2023-07-16T07:26:56;9.45;;;4.68;;
26774;SDS011;14362;51.902;7.626;2023-07-16T07:30:58;7.00;;;4.60;;
26774;SDS011;14362;51.902;7.626;2023-07-16T07:35:00;7.78;;;4.65;;
26774;SDS011;14362;51.902;7.626;2023-07-16T07:39:02;13.02;;;4.90;;
26774;SDS011;14362;51.902;7.626;2023-07-16T07:43:05;7.75;;;4.30;;
26774;SDS011;14362;51.902;7.626;2023-07-16T07:47:06;6.70;;;4.43;;
26774;SDS011;14362;51.902;7.626;2023-07-16T07:51:08;7.38;;;4.47;;
26774;SDS011;14362;51.902;7.626;2023-07-16T07:55:10;7.20;;;3.72;;
26774;SDS011;14362;51.902;7.626;2023-07-16T07:59:13;9.25;;;4.00;;
26774;SDS011;14362;51.902;7.626;2023-07-16T08:03:14;8.07;;;3.75;;
26774;SDS011;14362;51.902;7.626;2023-07-16T08:07:15;7.70;;;3.90;;
26774;SDS011;14362;51.902;7.626;2023-07-16T08:11:17;5.65;;;3.58;;
26774;SDS011;14362;51.902;7.626;2023-07-16T08:15:20;11.00;;;4.70;;
26774;SDS011;14362;51.902;7.626;2023-07-16T08:19:21;8.95;;;4.40;;
26774;SDS011;14362;51.902;7.626;2023-07-16T08:23:23;7.93;;;4.03;;
26774;SDS011;14362;51.902;7.626;2023-07-16T08:27:24;8.13;;;4.40;;
26774;SDS011;14362;51.902;7.626;2023-07-16T08:31:27;8.18;;;4.03;;
26774;SDS011;14362;51.902;7.626;2023-07-16T08:35:29;7.70;;;4.80;;
26774;SDS011;14362;51.902;7.626;2023-07-16T08:39:31;7.00;;;4.18;;
26774;SDS011;14362;51.902;7.626;2023-07-16T08:43:32;9.93;;;4.25;;
26774;SDS011;14362;51.902;7.626;2023-07-16T08:47:35;8.75;;;4.15;;
26774;SDS011;14362;51.902;7.626;2023-07-16T08:51:37;6.95;;;4.20;;
26774;SDS011;14362;51.902;7.626;2023-07-16T08:55:39;8.55;;;4.53;;
26774;SDS011;14362;51.902;7.626;2023-07-16T08:59:41;8.35;;;4.63;;
26774;SDS011;14362;51.902;7.626;2023-07-16T09:03:44;9.63;;;4.47;;
26774;SDS011;14362;51.902;7.626;2023-07-16T09:07:47;5.95;;;3.50;;
26774;SDS011;14362;51.902;7.626;2023-07-16T09:11:48;8.30;;;4.30;;
26774;SDS011;14362;51.902;7.626;2023-07-16T09:15:50;5.63;;;4.18;;
26774;SDS011;14362;51.902;7.626;2023-07-16T09:19:53;6.55;;;3.70;;
26774;SDS011;14362;51.902;7.626;2023-07-16T09:23:54;5.82;;;3.90;;
26774;SDS011;14362;51.902;7.626;2023-07-16T09:27:57;6.03;;;4.10;;
26774;SDS011;14362;51.902;7.626;2023-07-16T09:32:02;7.60;;;3.70;;
26774;SDS011;14362;51.902;7.626;2023-07-16T09:36:06;10.18;;;3.88;;
26774;SDS011;14362;51.902;7.626;2023-07-16T09:40:08;7.65;;;4.10;;
26774;SDS011;14362;51.902;7.626;2023-07-16T09:44:11;7.75;;;3.85;;
26774;SDS011;14362;51.902;7.626;2023-07-16T09:48:14;9.30;;;4.05;;
26774;SDS011;14362;51.902;7.626;2023-07-16T09:52:17;7.40;;;4.22;;
26774;SDS011;14362;51.902;7.626;2023-07-16T09:56:20;7.07;;;3.55;;
26774;SDS011;14362;51.902;7.626;2023-07-16T10:00:21;7.20;;;3.92;;
26774;SDS011;14362;51.902;7.626;2023-07-16T10:04:24;7.43;;;3.90;;
26774;SDS011;14362;51.902;7.626;2023-07-16T10:08:32;5.05;;;3.60;;
26774;SDS011;14362;51.902;7.626;2023-07-16T10:12:36;7.65;;;4.07;;
26774;SDS011;14362;51.902;7.626;2023-07-16T10:16:37;6.97;;;3.63;;
26774;SDS011;14362;51.902;7.626;2023-07-16T10:20:40;5.78;;;3.78;;
26774;SDS011;14362;51.902;7.626;2023-07-16T10:24:45;10.48;;;3.45;;
26774;SDS011;14362;51.902;7.626;2023-07-16T10:28:52;8.65;;;4.30;;
26774;SDS011;14362;51.902;7.626;2023-07-16T10:32:53;5.50;;;3.47;;
26774;SDS011;14362;51.902;7.626;2023-07-16T10:36:55;9.48;;;3.30;;
26774;SDS011;14362;51.902;7.626;2023-07-16T10:40:58;5.55;;;3.45;;
26774;SDS011;14362;51.902;7.626;2023-07-16T10:45:00;8.07;;;3.65;;
26774;SDS011;14362;51.902;7.626;2023-07-16T10:49:02;5.88;;;3.40;;
26774;SDS011;14362;51.902;7.626;2023-07-16T10:53:04;6.97;;;3.58;;
26774;SDS011;14362;51.902;7.626;2023-07-16T10:57:07;6.43;;;3.63;;
26774;SDS011;14362;51.902;7.626;2023-07-16T11:01:08;6.13;;;3.40;;
26774;SDS011;14362;51.902;7.626;2023-07-16T11:05:10;7.63;;;3.55;;
26774;SDS011;14362;51.902;7.626;2023-07-16T11:09:12;6.95;;;3.70;;
26774;SDS011;14362;51.902;7.626;2023-07-16T11:13:15;6.00;;;3.50;;
26774;SDS011;14362;51.902;7.626;2023-07-16T11:17:17;6.10;;;3.88;;
26774;SDS011;14362;51.902;7.626;2023-07-16T11:21:19;7.40;;;3.10;;
26774;SDS011;14362;51.902;7.626;2023-07-16T11:25:23;5.85;;;3.95;;
26774;SDS011;14362;51.902;7.626;2023-07-16T11:29:26;6.18;;;3.40;;
26774;SDS011;14362;51.902;7.626;2023-07-16T11:33:36;8.90;;;3.58;;
26774;SDS011;14362;51.902;7.626;2023-07-16T11:37:37;5.68;;;3.13;;
26774;SDS011;14362;51.902;7.626;2023-07-16T11:41:38;5.28;;;3.28;;
26774;SDS011;14362;51.902;7.626;2023-07-16T11:45:46;6.03;;;3.45;;
26774;SDS011;14362;51.902;7.626;2023-07-16T11:49:48;5.47;;;3.72;;
26774;SDS011;14362;51.902;7.626;2023-07-16T11:53:50;6.45;;;3.40;;
26774;SDS011;14362;51.902;7.626;2023-07-16T11:57:52;6.05;;;3.30;;
26774;SDS011;14362;51.902;7.626;2023-07-16T12:01:54;7.28;;;3.15;;
26774;SDS011;14362;51.902;7.626;2023-07-16T12:05:56;7.88;;;3.55;;
26774;SDS011;14362;51.902;7.626;2023-07-16T12:09:57;7.80;;;3.08;;
26774;SDS011;14362;51.902;7.626;2023-07-16T12:13:59;7.20;;;3.35;;
26774;SDS011;14362;51.902;7.626;2023-07-16T12:18:02;5.53;;;3.42;;
26774;SDS011;14362;51.902;7.626;2023-07-16T12:22:04;4.32;;;3.47;;
26774;SDS011;14362;51.902;7.626;2023-07-16T12:26:06;7.97;;;3.35;;
26774;SDS011;14362;51.902;7.626;2023-07-16T12:30:08;5.32;;;3.45;;
26774;SDS011;14362;51.902;7.626;2023-07-16T12:34:12;8.18;;;3.60;;
26774;SDS011;14362;51.902;7.626;2023-07-16T12:38:13;3.85;;;3.00;;
26774;SDS011;14362;51.902;7.626;2023-07-16T12:42:15;8.10;;;3.30;;
26774;SDS011;14362;51.902;7.626;2023-07-16T12:46:16;4.93;;;3.63;;
26774;SDS011;14362;51.902;7.626;2023-07-16T12:50:19;7.22;;;3.22;;
26774;SDS011;14362;51.902;7.626;2023-07-16T12:54:20;6.88;;;3.78;;
26774;SDS011;14362;51.902;7.626;2023-07-16T12:58:22;8.45;;;3.33;;
26774;SDS011;14362;51.902;7.626;2023-07-16T13:02:23;6.53;;;3.40;;
26774;SDS011;14362;51.902;7.626;2023-07-16T13:06:26;7.47;;;3.45;;
26774;SDS011;14362;51.902;7.626;2023-07-16T13:10:28;4.25;;;3.05;;
26774;SDS011;14362;51.902;7.626;2023-07-16T13:14:30;8.57;;;3.60;;
26774;SDS011;14362;51.902;7.626;2023-07-16T13:18:31;5.50;;;3.88;;
26774;SDS011;14362;51.902;7.626;2023-07-16T13:22:34;3.65;;;3.22;;
26774;SDS011;14362;51.902;7.626;2023-07-16T13:26:36;7.43;;;3.60;;
26774;SDS011;14362;51.902;7.626;2023-07-16T13:30:38;4.88;;;3.20;;
26774;SDS011;14362;51.902;7.626;2023-07-16T13:34:39;6.90;;;3.72;;
26774;SDS011;14362;51.902;7.626;2023-07-16T13:38:42;5.65;;;3.25;;
26774;SDS011;14362;51.902;7.626;2023-07-16T13:42:43;7.60;;;3.80;;
26774;SDS011;14362;51.902;7.626;2023-07-16T13:46:45;5.72;;;3.25;;
26774;SDS011;14362;51.902;7.626;2023-07-16T13:50:46;5.53;;;3.17;;
26774;SDS011;14362;51.902;7.626;2023-07-16T13:54:49;7.85;;;3.72;;
26774;SDS011;14362;51.902;7.626;2023-07-16T13:58:50;5.95;;;3.17;;
26774;SDS011;14362;51.902;7.626;2023-07-16T14:02:53;3.90;;;3.50;;
26774;SDS011;14362;51.902;7.626;2023-07-16T14:06:55;5.10;;;3.53;;
26774;SDS011;14362;51.902;7.626;2023-07-16T14:10:58;5.60;;;3.70;;
26774;SDS011;14362;51.902;7.626;2023-07-16T14:15:00;5.90;;;3.28;;
26774;SDS011;14362;51.902;7.626;2023-07-16T14:19:01;5.90;;;3.50;;
26774;SDS011;14362;51.902;7.626;2023-07-16T14:23:03;6.53;;;3.25;;
26774;SDS011;14362;51.902;7.626;2023-07-16T14:27:06;4.35;;;2.97;;
26774;SDS011;14362;51.902;7.626;2023-07-16T14:31:08;4.57;;;2.42;;
26774;SDS011;14362;51.902;7.626;2023-07-16T14:35:10;7.63;;;2.67;;
26774;SDS011;14362;51.902;7.626;2023-07-16T14:39:11;3.72;;;2.75;;
26774;SDS011;14362;51.902;7.626;2023-07-16T14:43:14;6.20;;;2.97;;
26774;SDS011;14362;51.902;7.626;2023-07-16T14:47:16;6.68;;;3.20;;
26774;SDS011;14362;51.902;7.626;2023-07-16T14:51:18;5.07;;;3.08;;
26774;SDS011;14362;51.902;7.626;2023-07-16T14:55:19;4.82;;;2.95;;
26774;SDS011;14362;51.902;7.626;2023-07-16T14:59:24;5.03;;;3.10;;
26774;SDS011;14362;51.902;7.626;2023-07-16T15:03:25;6.43;;;2.63;;
26774;SDS011;14362;51.902;7.626;2023-07-16T15:07:26;4.70;;;2.72;;
26774;SDS011;14362;51.902;7.626;2023-07-16T15:11:28;4.80;;;2.55;;
26774;SDS011;14362;51.902;7.626;2023-07-16T15:15:31;6.95;;;2.55;;
26774;SDS011;14362;51.902;7.626;2023-07-16T15:19:32;3.45;;;2.85;;
26774;SDS011;14362;51.902;7.626;2023-07-16T15:23:34;4.03;;;2.70;;
26774;SDS011;14362;51.902;7.626;2023-07-16T15:27:36;5.38;;;2.97;;
26774;SDS011;14362;51.902;7.626;2023-07-16T15:31:38;4.72;;;2.78;;
26774;SDS011;14362;51.902;7.626;2023-07-16T15:35:40;7.15;;;3.08;;
26774;SDS011;14362;51.902;7.626;2023-07-16T15:39:41;4.40;;;2.47;;
26774;SDS011;14362;51.902;7.626;2023-07-16T15:43:43;6.07;;;3.00;;
26774;SDS011;14362;51.902;7.626;2023-07-16T15:47:50;3.25;;;2.50;;
26774;SDS011;14362;51.902;7.626;2023-07-16T15:51:56;3.95;;;2.50;;
26774;SDS011;14362;51.902;7.626;2023-07-16T15:55:58;4.63;;;2.38;;
26774;SDS011;14362;51.902;7.626;2023-07-16T15:59:59;3.60;;;2.72;;
26774;SDS011;14362;51.902;7.626;2023-07-16T16:04:02;3.67;;;2.40;;
26774;SDS011;14362;51.902;7.626;2023-07-16T16:08:11;4.85;;;2.50;;
26774;SDS011;14362;51.902;7.626;2023-07-16T16:12:15;3.28;;;2.78;;
26774;SDS011;14362;51.902;7.626;2023-07-16T16:16:17;5.65;;;3.38;;
26774;SDS011;14362;51.902;7.626;2023-07-16T16:20:20;5.40;;;2.70;;
26774;SDS011;14362;51.902;7.626;2023-07-16T16:24:21;5.70;;;3.35;;
26774;SDS011;14362;51.902;7.626;2023-07-16T16:28:23;7.28;;;2.90;;
26774;SDS011;14362;51.902;7.626;2023-07-16T16:32:24;3.85;;;2.53;;
26774;SDS011;14362;51.902;7.626;2023-07-16T16:36:27;3.58;;;2.47;;
26774;SDS011;14362;51.902;7.626;2023-07-16T16:40:28;4.45;;;2.67;;
26774;SDS011;14362;51.902;7.626;2023-07-16T16:44:30;4.00;;;2.38;;
26774;SDS011;14362;51.902;7.626;2023-07-16T16:48:32;4.80;;;2.58;;
26774;SDS011;14362;51.902;7.626;2023-07-16T16:52:37;2.63;;;2.28;;
26774;SDS011;14362;51.902;7.626;2023-07-16T16:56:39;5.55;;;2.22;;
26774;SDS011;14362;51.902;7.626;2023-07-16T17:00:40;2.70;;;2.20;;
26774;SDS011;14362;51.902;7.626;2023-07-16T17:04:41;5.05;;;2.38;;
26774;SDS011;14362;51.902;7.626;2023-07-16T17:08:45;3.72;;;2.42;;
26774;SDS011;14362;51.902;7.626;2023-07-16T17:12:46;4.60;;;2.50;;
26774;SDS011;14362;51.902;7.626;2023-07-16T17:16:47;4.68;;;2.45;;
26774;SDS011;14362;51.902;7.626;2023-07-16T17:20:49;5.03;;;2.10;;
26774;SDS011;14362;51.902;7.626;2023-07-16T17:24:52;4.15;;;2.30;;
26774;SDS011;14362;51.902;7.626;2023-07-16T17:28:53;3.97;;;2.35;;
26774;SDS011;14362;51.902;7.626;2023-07-16T17:32:54;4.80;;;2.75;;
26774;SDS011;14362;51.902;7.626;2023-07-16T17:36:56;6.82;;;2.70;;
26774;SDS011;14362;51.902;7.626;2023-07-16T17:40:59;5.40;;;3.17;;
26774;SDS011;14362;51.902;7.626;2023-07-16T17:45:00;4.53;;;2.53;;
26774;SDS011;14362;51.902;7.626;2023-07-16T17:49:02;4.70;;;2.53;;
26774;SDS011;14362;51.902;7.626;2023-07-16T17:53:04;5.88;;;2.95;;
26774;SDS011;14362;51.902;7.626;2023-07-16T17:57:08;4.95;;;2.40;;
26774;SDS011;14362;51.902;7.626;2023-07-16T18:01:10;4.38;;;2.35;;
26774;SDS011;14362;51.902;7.626;2023-07-16T18:05:12;4.32;;;2.80;;
26774;SDS011;14362;51.902;7.626;2023-07-16T18:09:14;5.90;;;2.60;;
26774;SDS011;14362;51.902;7.626;2023-07-16T18:13:17;3.28;;;2.35;;
26774;SDS011;14362;51.902;7.626;2023-07-16T18:17:18;4.97;;;2.80;;
26774;SDS011;14362;51.902;7.626;2023-07-16T18:21:20;5.13;;;3.15;;
26774;SDS011;14362;51.902;7.626;2023-07-16T18:25:21;4.00;;;2.72;;
26774;SDS011;14362;51.902;7.626;2023-07-16T18:29:24;4.38;;;2.60;;
26774;SDS011;14362;51.902;7.626;2023-07-16T18:33:25;4.63;;;2.95;;
26774;SDS011;14362;51.902;7.626;2023-07-16T18:37:27;4.60;;;2.85;;
26774;SDS011;14362;51.902;7.626;2023-07-16T18:41:28;4.47;;;2.60;;
26774;SDS011;14362;51.902;7.626;2023-07-16T18:45:31;4.60;;;2.80;;
26774;SDS011;14362;51.902;7.626;2023-07-16T18:49:32;4.88;;;2.80;;
26774;SDS011;14362;51.902;7.626;2023-07-16T18:53:34;6.97;;;3.00;;
26774;SDS011;14362;51.902;7.626;2023-07-16T18:57:36;5.20;;;2.78;;
26774;SDS011;14362;51.902;7.626;2023-07-16T19:01:38;4.72;;;2.85;;
26774;SDS011;14362;51.902;7.626;2023-07-16T19:05:40;4.82;;;3.10;;
26774;SDS011;14362;51.902;7.626;2023-07-16T19:09:41;5.85;;;3.05;;
26774;SDS011;14362;51.902;7.626;2023-07-16T19:13:43;5.40;;;2.80;;
26774;SDS011;14362;51.902;7.626;2023-07-16T19:17:45;5.25;;;2.83;;
26774;SDS011;14362;51.902;7.626;2023-07-16T19:21:47;4.45;;;2.90;;
26774;SDS011;14362;51.902;7.626;2023-07-16T19:25:48;4.53;;;3.10;;
26774;SDS011;14362;51.902;7.626;2023-07-16T19:29:50;3.72;;;2.88;;
26774;SDS011;14362;51.902;7.626;2023-07-16T19:33:53;5.10;;;3.38;;
26774;SDS011;14362;51.902;7.626;2023-07-16T19:37:55;3.75;;;2.95;;
26774;SDS011;14362;51.902;7.626;2023-07-16T19:41:56;4.85;;;2.90;;
26774;SDS011;14362;51.902;7.626;2023-07-16T19:46:00;4.80;;;3.15;;
26774;SDS011;14362;51.902;7.626;2023-07-16T19:50:05;3.78;;;3.00;;
26774;SDS011;14362;51.902;7.626;2023-07-16T19:54:08;4.75;;;3.67;;
26774;SDS011;14362;51.902;7.626;2023-07-16T19:58:10;5.22;;;3.25;;
26774;SDS011;14362;51.902;7.626;2023-07-16T20:02:12;3.88;;;3.40;;
26774;SDS011;14362;51.902;7.626;2023-07-16T20:06:14;5.32;;;3.45;;
26774;SDS011;14362;51.902;7.626;2023-07-16T20:10:17;5.20;;;3.42;;
26774;SDS011;14362;51.902;7.626;2023-07-16T20:14:19;5.78;;;3.50;;
26774;SDS011;14362;51.902;7.626;2023-07-16T20:18:20;6.90;;;3.25;;
26774;SDS011;14362;51.902;7.626;2023-07-16T20:22:23;5.43;;;3.30;;
26774;SDS011;14362;51.902;7.626;2023-07-16T20:26:24;4.18;;;3.28;;
26774;SDS011;14362;51.902;7.626;2023-07-16T20:30:26;7.95;;;4.00;;
26774;SDS011;14362;51.902;7.626;2023-07-16T20:34:28;5.50;;;3.88;;
26774;SDS011;14362;51.902;7.626;2023-07-16T20:38:31;6.55;;;4.63;;
26774;SDS011;14362;51.902;7.626;2023-07-16T20:42:32;6.47;;;4.63;;
26774;SDS011;14362;51.902;7.626;2023-07-16T20:46:33;7.15;;;4.32;;
26774;SDS011;14362;51.902;7.626;2023-07-16T20:50:35;5.82;;;3.63;;
26774;SDS011;14362;51.902;7.626;2023-07-16T20:54:38;6.35;;;3.30;;
26774;SDS011;14362;51.902;7.626;2023-07-16T20:58:39;4.95;;;2.78;;
26774;SDS011;14362;51.902;7.626;2023-07-16T21:02:41;5.32;;;3.38;;
26774;SDS011;14362;51.902;7.626;2023-07-16T21:06:42;3.95;;;3.30;;
26774;SDS011;14362;51.902;7.626;2023-07-16T21:10:45;4.07;;;3.20;;
26774;SDS011;14362;51.902;7.626;2023-07-16T21:14:47;6.47;;;3.53;;
26774;SDS011;14362;51.902;7.626;2023-07-16T21:18:48;5.13;;;3.67;;
26774;SDS011;14362;51.902;7.626;2023-07-16T21:22:50;4.55;;;3.53;;
26774;SDS011;14362;51.902;7.626;2023-07-16T21:26:52;4.65;;;3.22;;
26774;SDS011;14362;51.902;7.626;2023-07-16T21:30:54;5.65;;;3.45;;
26774;SDS011;14362;51.902;7.626;2023-07-16T21:34:55;4.95;;;3.45;;
26774;SDS011;14362;51.902;7.626;2023-07-16T21:38:57;4.68;;;3.22;;
26774;SDS011;14362;51.902;7.626;2023-07-16T21:42:59;5.75;;;3.42;;
26774;SDS011;14362;51.902;7.626;2023-07-16T21:47:01;6.40;;;3.58;;
26774;SDS011;14362;51.902;7.626;2023-07-16T21:51:04;4.60;;;3.42;;
26774;SDS011;14362;51.902;7.626;2023-07-16T21:55:06;5.45;;;3.90;;
26774;SDS011;14362;51.902;7.626;2023-07-16T21:59:10;6.22;;;3.60;;
26774;SDS011;14362;51.902;7.626;2023-07-16T22:03:11;6.20;;;3.83;;
26774;SDS011;14362;51.902;7.626;2023-07-16T22:07:13;7.28;;;3.70;;
26774;SDS011;14362;51.902;7.626;2023-07-16T22:11:14;6.40;;;3.83;;
26774;SDS011;14362;51.902;7.626;2023-07-16T22:15:17;6.97;;;3.63;;
26774;SDS011;14362;51.902;7.626;2023-07-16T22:19:19;6.78;;;3.78;;
26774;SDS011;14362;51.902;7.626;2023-07-16T22:23:21;5.55;;;4.03;;
26774;SDS011;14362;51.902;7.626;2023-07-16T22:27:22;5.50;;;3.67;;
26774;SDS011;14362;51.902;7.626;2023-07-16T22:31:26;4.60;;;3.63;;
26774;SDS011;14362;51.902;7.626;2023-07-16T22:35:27;5.68;;;3.28;;
26774;SDS011;14362;51.902;7.626;2023-07-16T22:39:28;5.25;;;3.78;;
26774;SDS011;14362;51.902;7.626;2023-07-16T22:43:30;5.25;;;3.22;;
26774;SDS011;14362;51.902;7.626;2023-07-16T22:47:33;4.43;;;3.40;;
26774;SDS011;14362;51.902;7.626;2023-07-16T22:51:34;6.93;;;4.15;;
26774;SDS011;14362;51.902;7.626;2023-07-16T22:55:36;6.15;;;3.67;;
26774;SDS011;14362;51.902;7.626;2023-07-16T22:59:37;6.05;;;3.88;;
26774;SDS011;14362;51.902;7.626;2023-07-16T23:03:40;5.32;;;3.75;;
26774;SDS011;14362;51.902;7.626;2023-07-16T23:07:42;5.35;;;3.90;;
26774;SDS011;14362;51.902;7.626;2023-07-16T23:11:43;5.00;;;3.83;;
26774;SDS011;14362;51.902;7.626;2023-07-16T23:15:45;5.20;;;3.70;;
26774;SDS011;14362;51.902;7.626;2023-07-16T23:19:48;6.22;;;3.55;;
26774;SDS011;14362;51.902;7.626;2023-07-16T23:23:49;5.18;;;3.67;;
26774;SDS011;14362;51.902;7.626;2023-07-16T23:27:51;6.65;;;4.00;;
26774;SDS011;14362;51.902;7.626;2023-07-16T23:31:52;5.72;;;4.05;;
26774;SDS011;14362;51.902;7.626;2023-07-16T23:35:55;6.97;;;3.90;;
26774;SDS011;14362;51.902;7.626;2023-07-16T23:39:56;6.35;;;4.20;;
26774;SDS011;14362;51.902;7.626;2023-07-16T23:43:58;9.10;;;4.10;;
26774;SDS011;14362;51.902;7.626;2023-07-16T23:47:59;4.40;;;3.47;;
26774;SDS011;14362;51.902;7.626;2023-07-16T23:52:02;8.60;;;4.00;;
26774;SDS011;14362;51.902;7.626;2023-07-16T23:56:04;7.15;;;4.05;;
